createdAt,value
2018-11-11T00:00:16.337Z,75.47
2018-11-11T00:01:16.304Z,75.66
2018-11-11T00:02:16.278Z,75.66
2018-11-11T00:03:16.277Z,75.85
2018-11-11T00:04:16.290Z,75.85
2018-11-11T00:05:16.270Z,75.37
2018-11-11T00:06:16.251Z,75.37
2018-11-11T00:07:16.242Z,76.23
2018-11-11T00:08:16.228Z,76.33
2018-11-11T00:09:16.236Z,76.52
2018-11-11T00:10:16.221Z,76.90
2018-11-11T00:11:16.209Z,77.19
2018-11-11T00:12:16.197Z,76.71
2018-11-11T00:13:16.191Z,76.81
2018-11-11T00:14:16.184Z,76.81
2018-11-11T00:15:16.183Z,76.42
2018-11-11T00:16:16.164Z,76.52
2018-11-11T00:17:16.159Z,76.81
2018-11-11T00:18:16.152Z,76.23
2018-11-11T00:19:18.668Z,76.14
2018-11-11T00:20:16.137Z,76.33
2018-11-11T00:21:16.132Z,76.42
2018-11-11T00:22:16.123Z,76.90
2018-11-11T00:23:16.120Z,76.71
2018-11-11T00:24:16.103Z,77.09
2018-11-11T00:25:16.102Z,77.38
2018-11-11T00:26:16.097Z,77.00
2018-11-11T00:27:16.123Z,77.67
2018-11-11T00:28:16.122Z,78.14
2018-11-11T00:29:16.064Z,78.23
2018-11-11T00:30:17.678Z,78.43
2018-11-11T00:31:16.052Z,78.62
2018-11-11T00:32:17.689Z,79.00
2018-11-11T00:33:16.058Z,79.10
2018-11-11T00:34:16.027Z,79.86
2018-11-11T00:35:16.092Z,80.62
2018-11-11T00:36:16.051Z,80.91
2018-11-11T00:37:15.999Z,81.29
2018-11-11T00:38:16.001Z,81.29
2018-11-11T00:39:15.990Z,81.77
2018-11-11T00:40:16.000Z,81.96
2018-11-11T00:41:15.974Z,83.11
2018-11-11T00:42:15.967Z,82.63
2018-11-11T00:43:15.966Z,82.63
2018-11-11T00:44:25.161Z,82.53
2018-11-11T00:46:10.307Z,83.11
2018-11-11T00:47:09.653Z,83.58
2018-11-11T00:49:03.518Z,83.20
2018-11-11T00:50:03.417Z,84.25
2018-11-11T00:51:57.396Z,84.92
2018-11-11T00:52:57.822Z,85.30
2018-11-11T00:54:50.970Z,85.11
2018-11-11T00:55:50.718Z,86.92
2018-11-11T00:57:46.997Z,86.82
2018-11-11T00:58:44.414Z,87.78
2018-11-11T01:00:38.080Z,87.87
2018-11-11T01:01:38.021Z,89.21
2018-11-11T01:03:31.748Z,88.45
2018-11-11T01:04:31.710Z,89.59
2018-11-11T01:06:25.743Z,89.97
2018-11-11T01:07:25.398Z,90.45
2018-11-11T01:08:25.363Z,91.12
2018-11-11T01:09:25.418Z,91.02
2018-11-11T01:10:25.299Z,91.50
2018-11-11T01:11:25.275Z,91.69
2018-11-11T01:12:25.332Z,91.31
2018-11-11T01:13:25.257Z,92.26
2018-11-11T01:14:25.253Z,92.65
2018-11-11T01:15:25.243Z,94.36
2018-11-11T01:16:25.261Z,94.27
2018-11-11T01:17:25.225Z,94.36
2018-11-11T01:18:25.232Z,95.03
2018-11-11T01:19:25.219Z,95.12
2018-11-11T01:20:25.203Z,95.32
2018-11-11T01:21:25.193Z,95.03
2018-11-11T01:22:25.206Z,95.51
2018-11-11T01:23:25.173Z,95.27
2018-11-11T01:24:25.169Z,96.89
2018-11-11T01:25:25.183Z,97.56
2018-11-11T01:26:25.151Z,97.75
2018-11-11T01:27:25.152Z,97.66
2018-11-11T01:28:25.139Z,97.56
2018-11-11T01:29:25.139Z,98.90
2018-11-11T01:30:25.658Z,98.99
2018-11-11T01:31:25.154Z,98.61
2018-11-11T01:32:25.126Z,99.08
2018-11-11T01:33:25.123Z,99.08
2018-11-11T01:34:25.095Z,99.66
2018-11-11T01:35:25.084Z,99.95
2018-11-11T01:36:25.088Z,99.85
2018-11-11T01:37:25.064Z,99.99
2018-11-11T01:38:25.064Z,99.99
2018-11-11T01:39:25.055Z,99.99
2018-11-11T01:40:25.055Z,99.95
2018-11-11T01:41:25.034Z,99.99
2018-11-11T01:42:25.042Z,99.99
2018-11-11T01:43:25.022Z,99.99
2018-11-11T01:44:25.008Z,99.99
2018-11-11T01:45:25.020Z,99.99
2018-11-11T01:46:24.996Z,99.99
2018-11-11T01:47:25.010Z,99.99
2018-11-11T01:48:24.983Z,99.99
2018-11-11T01:49:24.967Z,99.99
2018-11-11T01:50:24.963Z,99.99
2018-11-11T01:51:24.956Z,99.99
2018-11-11T01:52:24.947Z,99.99
2018-11-11T01:53:24.954Z,99.99
2018-11-11T01:54:24.944Z,99.99
2018-11-11T01:55:24.932Z,99.99
2018-11-11T01:56:24.935Z,99.99
2018-11-11T01:57:24.903Z,99.99
2018-11-11T01:58:24.894Z,99.99
2018-11-11T01:59:24.888Z,99.99
2018-11-11T02:00:24.897Z,99.99
2018-11-11T02:01:24.868Z,99.99
2018-11-11T02:02:24.867Z,99.99
2018-11-11T02:03:24.858Z,99.99
2018-11-11T02:04:24.845Z,99.99
2018-11-11T02:05:24.846Z,99.99
2018-11-11T02:06:24.840Z,99.99
2018-11-11T02:07:24.852Z,99.99
2018-11-11T02:08:24.814Z,99.99
2018-11-11T02:09:24.817Z,99.99
2018-11-11T02:10:24.810Z,99.99
2018-11-11T02:11:24.784Z,99.99
2018-11-11T02:12:24.794Z,99.99
2018-11-11T02:13:24.777Z,99.99
2018-11-11T02:14:24.778Z,99.99
2018-11-11T02:15:24.758Z,99.99
2018-11-11T02:16:24.757Z,99.99
2018-11-11T02:17:24.742Z,99.99
2018-11-11T02:18:24.731Z,99.99
2018-11-11T02:19:24.743Z,99.99
2018-11-11T02:20:24.723Z,99.99
2018-11-11T02:21:24.723Z,99.99
2018-11-11T02:22:24.702Z,99.99
2018-11-11T02:23:24.705Z,99.99
2018-11-11T02:24:24.681Z,99.99
2018-11-11T02:25:24.677Z,99.99
2018-11-11T02:26:24.675Z,99.99
2018-11-11T02:27:24.672Z,99.99
2018-11-11T02:28:24.706Z,99.99
2018-11-11T02:29:24.649Z,99.99
2018-11-11T02:30:24.635Z,99.99
2018-11-11T02:31:24.624Z,99.99
2018-11-11T02:32:24.614Z,99.99
2018-11-11T02:33:24.613Z,99.99
2018-11-11T02:34:24.621Z,99.99
2018-11-11T02:35:24.595Z,99.99
2018-11-11T02:36:24.588Z,99.99
2018-11-11T02:37:24.599Z,99.99
2018-11-11T02:38:24.567Z,99.99
2018-11-11T02:39:24.557Z,99.99
2018-11-11T02:40:24.561Z,99.99
2018-11-11T02:41:24.553Z,99.99
2018-11-11T02:42:24.534Z,99.99
2018-11-11T02:43:24.533Z,99.99
2018-11-11T02:44:24.539Z,99.99
2018-11-11T02:45:24.510Z,99.99
2018-11-11T02:46:24.500Z,99.99
2018-11-11T02:47:24.504Z,99.99
2018-11-11T02:48:24.494Z,99.99
2018-11-11T02:49:24.478Z,99.99
2018-11-11T02:50:24.481Z,99.99
2018-11-11T02:51:24.488Z,99.99
2018-11-11T02:52:24.451Z,99.99
2018-11-11T02:53:24.452Z,99.99
2018-11-11T02:54:24.455Z,99.99
2018-11-11T02:55:24.430Z,99.99
2018-11-11T02:56:24.445Z,99.99
2018-11-11T02:57:24.412Z,99.99
2018-11-11T02:58:24.402Z,99.99
2018-11-11T02:59:24.399Z,99.99
2018-11-11T03:00:24.400Z,99.99
2018-11-11T03:01:24.378Z,99.99
2018-11-11T03:02:24.367Z,99.99
2018-11-11T03:03:24.360Z,99.99
2018-11-11T03:04:24.435Z,99.99
2018-11-11T03:05:24.347Z,99.99
2018-11-11T03:06:24.339Z,99.99
2018-11-11T03:07:24.328Z,99.99
2018-11-11T03:08:24.338Z,99.99
2018-11-11T03:09:24.313Z,99.99
2018-11-11T03:10:24.308Z,99.99
2018-11-11T03:11:24.298Z,99.99
2018-11-11T03:12:24.286Z,99.99
2018-11-11T03:13:24.280Z,99.99
2018-11-11T03:14:24.274Z,99.99
2018-11-11T03:15:24.271Z,99.99
2018-11-11T03:16:24.255Z,99.99
2018-11-11T03:17:24.257Z,99.99
2018-11-11T03:18:24.240Z,99.99
2018-11-11T03:19:24.230Z,99.99
2018-11-11T03:20:24.215Z,99.99
2018-11-11T03:21:24.223Z,99.99
2018-11-11T03:22:24.230Z,99.99
2018-11-11T03:23:24.232Z,99.99
2018-11-11T03:24:24.690Z,99.99
2018-11-11T03:25:24.193Z,99.99
2018-11-11T03:26:24.171Z,99.99
2018-11-11T03:27:24.183Z,99.99
2018-11-11T03:28:24.699Z,99.99
2018-11-11T03:29:24.167Z,99.99
2018-11-11T03:30:24.177Z,99.99
2018-11-11T03:31:24.148Z,99.99
2018-11-11T03:32:24.129Z,99.99
2018-11-11T03:33:24.117Z,99.99
2018-11-11T03:34:24.126Z,99.99
2018-11-11T03:35:24.114Z,99.99
2018-11-11T03:36:24.087Z,99.99
2018-11-11T03:37:24.091Z,99.99
2018-11-11T03:38:24.092Z,99.99
2018-11-11T03:39:24.074Z,99.99
2018-11-11T03:40:24.064Z,99.99
2018-11-11T03:41:24.088Z,99.99
2018-11-11T03:42:24.131Z,99.99
2018-11-11T03:43:24.056Z,99.99
2018-11-11T03:44:24.042Z,99.99
2018-11-11T03:45:24.007Z,99.99
2018-11-11T03:46:24.000Z,99.99
2018-11-11T03:47:24.000Z,99.99
2018-11-11T03:48:24.007Z,99.99
2018-11-11T03:49:23.996Z,99.99
2018-11-11T03:50:23.997Z,99.99
2018-11-11T03:51:23.970Z,99.99
2018-11-11T03:52:23.953Z,99.99
2018-11-11T03:53:23.943Z,99.99
2018-11-11T03:54:23.943Z,99.99
2018-11-11T03:55:23.948Z,99.99
2018-11-11T03:56:23.937Z,99.99
2018-11-11T03:57:23.958Z,99.99
2018-11-11T03:58:23.909Z,99.99
2018-11-11T03:59:23.899Z,99.99
2018-11-11T04:00:23.889Z,99.99
2018-11-11T04:01:23.898Z,99.99
2018-11-11T04:02:23.899Z,99.99
2018-11-11T04:03:23.862Z,99.99
2018-11-11T04:04:23.913Z,99.99
2018-11-11T04:05:23.854Z,99.99
2018-11-11T04:06:23.843Z,99.99
2018-11-11T04:07:23.833Z,99.99
2018-11-11T04:08:23.842Z,99.99
2018-11-11T04:09:23.814Z,99.99
2018-11-11T04:10:23.843Z,99.99
2018-11-11T04:11:23.800Z,99.99
2018-11-11T04:12:23.803Z,99.99
2018-11-11T04:13:23.775Z,99.99
2018-11-11T04:14:23.778Z,99.99
2018-11-11T04:15:23.839Z,99.99
2018-11-11T04:16:23.775Z,99.99
2018-11-11T04:17:23.744Z,99.99
2018-11-11T04:18:23.752Z,99.99
2018-11-11T04:19:23.729Z,99.99
2018-11-11T04:20:23.751Z,99.99
2018-11-11T04:21:23.723Z,99.99
2018-11-11T04:22:23.729Z,99.99
2018-11-11T04:23:23.700Z,99.99
2018-11-11T04:24:23.688Z,99.99
2018-11-11T04:25:23.694Z,99.99
2018-11-11T04:26:23.670Z,99.99
2018-11-11T04:27:23.662Z,99.99
2018-11-11T04:28:23.672Z,99.99
2018-11-11T04:29:23.647Z,99.99
2018-11-11T04:30:23.640Z,99.99
2018-11-11T04:31:23.638Z,99.99
2018-11-11T04:32:23.632Z,99.99
2018-11-11T04:33:23.645Z,99.99
2018-11-11T04:34:23.611Z,99.99
2018-11-11T04:35:23.602Z,99.99
2018-11-11T04:36:23.620Z,99.99
2018-11-11T04:37:23.606Z,99.99
2018-11-11T04:38:23.581Z,99.99
2018-11-11T04:39:23.666Z,99.99
2018-11-11T04:40:23.556Z,99.99
2018-11-11T04:41:23.543Z,99.99
2018-11-11T04:42:23.539Z,99.99
2018-11-11T04:43:23.541Z,99.99
2018-11-11T04:44:23.524Z,99.99
2018-11-11T04:45:23.526Z,99.99
2018-11-11T04:46:23.525Z,99.99
2018-11-11T04:47:23.498Z,99.99
2018-11-11T04:48:23.494Z,99.99
2018-11-11T04:49:23.490Z,99.99
2018-11-11T04:50:23.477Z,99.99
2018-11-11T04:51:23.486Z,99.99
2018-11-11T04:52:23.465Z,99.99
2018-11-11T04:53:23.450Z,99.99
2018-11-11T04:54:23.468Z,99.99
2018-11-11T04:55:23.437Z,99.99
2018-11-11T04:56:23.450Z,99.99
2018-11-11T04:57:23.448Z,99.99
2018-11-11T04:58:23.440Z,99.99
2018-11-11T04:59:23.444Z,99.99
2018-11-11T05:00:44.407Z,99.99
2018-11-11T05:01:23.473Z,99.99
2018-11-11T05:02:23.372Z,99.99
2018-11-11T05:03:23.395Z,99.99
2018-11-11T05:04:23.392Z,99.99
2018-11-11T05:05:23.375Z,99.99
2018-11-11T05:06:23.343Z,99.99
2018-11-11T05:07:23.332Z,99.99
2018-11-11T05:08:23.324Z,99.99
2018-11-11T05:09:23.319Z,99.99
2018-11-11T05:10:23.317Z,99.99
2018-11-11T05:11:23.295Z,99.99
2018-11-11T05:12:23.302Z,99.99
2018-11-11T05:13:23.283Z,99.99
2018-11-11T05:14:23.272Z,99.99
2018-11-11T05:15:23.299Z,99.99
2018-11-11T05:16:23.256Z,99.99
2018-11-11T05:17:23.253Z,99.99
2018-11-11T05:18:23.267Z,99.99
2018-11-11T05:19:23.267Z,99.99
2018-11-11T05:20:23.222Z,99.99
2018-11-11T05:21:23.213Z,99.99
2018-11-11T05:22:23.213Z,99.99
2018-11-11T05:23:23.201Z,99.99
2018-11-11T05:24:23.193Z,99.99
2018-11-11T05:25:23.183Z,99.99
2018-11-11T05:26:23.222Z,99.99
2018-11-11T05:27:23.165Z,99.99
2018-11-11T05:28:23.155Z,99.99
2018-11-11T05:29:23.190Z,99.99
2018-11-11T05:30:23.147Z,99.99
2018-11-11T05:31:23.216Z,99.99
2018-11-11T05:32:23.125Z,99.99
2018-11-11T05:33:23.123Z,99.99
2018-11-11T05:34:23.188Z,99.99
2018-11-11T05:35:23.096Z,99.99
2018-11-11T05:36:23.135Z,99.99
2018-11-11T05:37:23.096Z,99.99
2018-11-11T05:38:23.111Z,99.99
2018-11-11T05:39:23.076Z,99.99
2018-11-11T05:40:23.062Z,99.99
2018-11-11T05:41:23.049Z,99.99
2018-11-11T05:42:23.039Z,99.99
2018-11-11T05:43:23.043Z,99.99
2018-11-11T05:44:23.029Z,99.99
2018-11-11T05:45:23.051Z,99.99
2018-11-11T05:46:23.022Z,99.99
2018-11-11T05:47:23.003Z,99.99
2018-11-11T05:48:22.994Z,99.99
2018-11-11T05:49:22.984Z,99.99
2018-11-11T05:50:22.983Z,99.99
2018-11-11T05:51:22.992Z,99.99
2018-11-11T05:52:22.994Z,99.99
2018-11-11T05:53:22.985Z,99.99
2018-11-11T05:54:22.942Z,99.99
2018-11-11T05:55:22.960Z,99.99
2018-11-11T05:56:22.962Z,99.99
2018-11-11T05:57:22.967Z,99.99
2018-11-11T05:58:22.922Z,99.99
2018-11-11T05:59:22.936Z,99.99
2018-11-11T06:00:22.926Z,99.99
2018-11-11T06:01:22.887Z,99.99
2018-11-11T06:02:22.920Z,99.99
2018-11-11T06:03:22.869Z,99.99
2018-11-11T06:04:22.907Z,99.99
2018-11-11T06:05:22.855Z,99.99
2018-11-11T06:06:22.870Z,99.99
2018-11-11T06:07:22.842Z,99.99
2018-11-11T06:08:22.829Z,99.99
2018-11-11T06:09:22.840Z,99.99
2018-11-11T06:10:22.822Z,99.99
2018-11-11T06:11:22.824Z,99.99
2018-11-11T06:12:22.811Z,99.99
2018-11-11T06:13:22.929Z,99.99
2018-11-11T06:14:22.845Z,99.99
2018-11-11T06:15:22.773Z,99.99
2018-11-11T06:16:22.766Z,99.99
2018-11-11T06:17:22.756Z,99.99
2018-11-11T06:18:22.749Z,99.99
2018-11-11T06:19:22.781Z,99.99
2018-11-11T06:20:22.732Z,99.99
2018-11-11T06:21:22.723Z,99.99
2018-11-11T06:22:22.714Z,99.99
2018-11-11T06:23:22.700Z,99.99
2018-11-11T06:24:22.712Z,99.99
2018-11-11T06:25:22.692Z,99.99
2018-11-11T06:26:22.703Z,99.99
2018-11-11T06:27:22.723Z,99.99
2018-11-11T06:28:22.665Z,99.99
2018-11-11T06:29:23.331Z,99.99
2018-11-11T06:30:22.644Z,99.99
2018-11-11T06:31:22.664Z,99.99
2018-11-11T06:32:22.634Z,99.99
2018-11-11T06:33:22.644Z,99.99
2018-11-11T06:34:22.645Z,99.99
2018-11-11T06:35:22.607Z,99.99
2018-11-11T06:36:22.602Z,99.99
2018-11-11T06:37:22.612Z,99.99
2018-11-11T06:38:22.616Z,99.99
2018-11-11T06:39:22.577Z,99.99
2018-11-11T06:40:22.601Z,99.99
2018-11-11T06:41:22.563Z,99.99
2018-11-11T06:42:22.548Z,99.99
2018-11-11T06:43:22.538Z,99.99
2018-11-11T06:44:22.531Z,99.99
2018-11-11T06:45:22.559Z,99.99
2018-11-11T06:46:22.548Z,99.99
2018-11-11T06:47:22.506Z,99.99
2018-11-11T06:48:22.497Z,99.99
2018-11-11T06:49:22.490Z,99.99
2018-11-11T06:50:22.496Z,99.99
2018-11-11T06:51:22.502Z,99.99
2018-11-11T06:52:22.482Z,99.99
2018-11-11T06:53:22.474Z,99.99
2018-11-11T06:54:22.454Z,99.99
2018-11-11T06:55:22.519Z,99.99
2018-11-11T06:56:22.432Z,99.99
2018-11-11T06:57:22.430Z,99.99
2018-11-11T06:58:22.448Z,99.99
2018-11-11T06:59:22.407Z,99.99
2018-11-11T07:00:22.422Z,99.99
2018-11-11T07:01:22.390Z,99.99
2018-11-11T07:02:22.386Z,99.99
2018-11-11T07:03:22.372Z,99.99
2018-11-11T07:04:22.362Z,99.99
2018-11-11T07:05:22.367Z,99.99
2018-11-11T07:06:22.356Z,99.99
2018-11-11T07:07:22.375Z,99.99
2018-11-11T07:08:22.358Z,99.99
2018-11-11T07:09:22.333Z,99.99
2018-11-11T07:10:22.318Z,99.99
2018-11-11T07:11:22.308Z,99.99
2018-11-11T07:12:22.302Z,99.99
2018-11-11T07:13:22.314Z,99.99
2018-11-11T07:14:22.318Z,99.99
2018-11-11T07:15:22.293Z,99.99
2018-11-11T07:16:22.276Z,99.99
2018-11-11T07:17:22.264Z,99.99
2018-11-11T07:18:22.250Z,99.99
2018-11-11T07:19:22.246Z,99.99
2018-11-11T07:20:22.241Z,99.99
2018-11-11T07:21:22.231Z,99.99
2018-11-11T07:22:22.239Z,99.99
2018-11-11T07:23:22.255Z,99.99
2018-11-11T07:24:22.210Z,99.99
2018-11-11T07:25:22.188Z,99.99
2018-11-11T07:26:22.200Z,99.99
2018-11-11T07:27:22.178Z,99.99
2018-11-11T07:28:22.170Z,99.99
2018-11-11T07:29:22.158Z,99.99
2018-11-11T07:30:22.149Z,99.99
2018-11-11T07:31:22.163Z,99.99
2018-11-11T07:32:22.129Z,99.99
2018-11-11T07:33:22.125Z,99.99
2018-11-11T07:34:22.136Z,99.99
2018-11-11T07:35:22.106Z,99.99
2018-11-11T07:36:22.103Z,99.99
2018-11-11T07:37:22.091Z,99.99
2018-11-11T07:38:22.079Z,99.99
2018-11-11T07:39:22.072Z,99.99
2018-11-11T07:40:22.071Z,99.99
2018-11-11T07:41:22.079Z,99.99
2018-11-11T07:42:22.084Z,99.99
2018-11-11T07:43:22.050Z,99.99
2018-11-11T07:44:22.036Z,99.99
2018-11-11T07:45:22.022Z,99.99
2018-11-11T07:46:22.026Z,99.99
2018-11-11T07:47:22.017Z,99.99
2018-11-11T07:48:21.998Z,99.99
2018-11-11T07:49:21.998Z,99.99
2018-11-11T07:50:21.986Z,99.99
2018-11-11T07:51:21.971Z,99.99
2018-11-11T07:52:21.961Z,99.99
2018-11-11T07:53:21.963Z,99.99
2018-11-11T07:54:21.956Z,99.99
2018-11-11T07:55:21.950Z,99.99
2018-11-11T07:56:21.972Z,99.99
2018-11-11T07:57:21.923Z,99.99
2018-11-11T07:58:21.942Z,99.99
2018-11-11T07:59:21.907Z,99.99
2018-11-11T08:00:21.912Z,99.99
2018-11-11T08:01:21.904Z,99.99
2018-11-11T08:02:21.882Z,99.99
2018-11-11T08:03:21.876Z,99.99
2018-11-11T08:04:21.861Z,99.99
2018-11-11T08:05:21.853Z,99.99
2018-11-11T08:06:21.853Z,99.99
2018-11-11T08:07:21.842Z,99.99
2018-11-11T08:08:21.846Z,99.99
2018-11-11T08:09:21.821Z,99.99
2018-11-11T08:10:21.824Z,99.99
2018-11-11T08:11:21.807Z,99.99
2018-11-11T08:12:21.800Z,99.99
2018-11-11T08:13:21.800Z,99.99
2018-11-11T08:14:21.789Z,99.99
2018-11-11T08:15:21.811Z,99.99
2018-11-11T08:16:21.768Z,99.99
2018-11-11T08:17:21.756Z,99.99
2018-11-11T08:18:22.306Z,99.99
2018-11-11T08:19:21.736Z,99.99
2018-11-11T08:20:21.747Z,99.99
2018-11-11T08:21:21.757Z,99.99
2018-11-11T08:22:21.718Z,99.99
2018-11-11T08:23:21.702Z,99.99
2018-11-11T08:24:21.696Z,99.99
2018-11-11T08:25:21.753Z,99.99
2018-11-11T08:26:21.690Z,99.99
2018-11-11T08:27:21.694Z,99.99
2018-11-11T08:28:21.698Z,99.99
2018-11-11T08:29:21.661Z,99.99
2018-11-11T08:30:21.676Z,99.99
2018-11-11T08:31:21.640Z,99.99
2018-11-11T08:32:21.657Z,99.99
2018-11-11T08:33:21.631Z,99.99
2018-11-11T08:34:21.635Z,99.99
2018-11-11T08:35:21.623Z,99.99
2018-11-11T08:36:21.608Z,99.99
2018-11-11T08:37:21.609Z,99.99
2018-11-11T08:38:21.591Z,99.99
2018-11-11T08:39:21.581Z,99.99
2018-11-11T08:40:21.604Z,99.99
2018-11-11T08:41:21.615Z,99.99
2018-11-11T08:42:21.567Z,99.99
2018-11-11T08:43:21.553Z,99.99
2018-11-11T08:44:21.541Z,99.99
2018-11-11T08:45:21.534Z,99.99
2018-11-11T08:46:21.533Z,99.99
2018-11-11T08:47:21.524Z,99.99
2018-11-11T08:48:21.635Z,99.99
2018-11-11T08:49:21.516Z,99.99
2018-11-11T08:50:21.496Z,99.99
2018-11-11T08:51:21.501Z,99.99
2018-11-11T08:52:21.483Z,99.99
2018-11-11T08:53:21.478Z,99.99
2018-11-11T08:54:21.462Z,99.99
2018-11-11T08:55:21.477Z,99.99
2018-11-11T08:56:21.466Z,99.99
2018-11-11T08:57:21.483Z,99.99
2018-11-11T08:58:21.443Z,99.99
2018-11-11T08:59:21.431Z,99.99
2018-11-11T09:00:21.425Z,99.99
2018-11-11T09:01:21.422Z,99.99
2018-11-11T09:02:21.401Z,99.99
2018-11-11T09:03:21.415Z,99.99
2018-11-11T09:04:21.390Z,99.99
2018-11-11T09:05:21.383Z,99.99
2018-11-11T09:06:21.378Z,99.99
2018-11-11T09:07:21.371Z,99.99
2018-11-11T09:08:21.370Z,99.99
2018-11-11T09:09:21.364Z,99.99
2018-11-11T09:10:21.353Z,99.99
2018-11-11T09:11:21.383Z,99.99
2018-11-11T09:12:21.330Z,99.99
2018-11-11T09:13:21.331Z,99.99
2018-11-11T09:14:21.321Z,99.99
2018-11-11T09:15:21.305Z,99.99
2018-11-11T09:16:21.305Z,99.99
2018-11-11T09:17:21.372Z,99.99
2018-11-11T09:18:21.287Z,99.99
2018-11-11T09:19:21.290Z,99.99
2018-11-11T09:20:21.295Z,99.99
2018-11-11T09:21:21.313Z,99.99
2018-11-11T09:22:21.274Z,99.99
2018-11-11T09:23:21.256Z,99.99
2018-11-11T09:24:21.364Z,99.99
2018-11-11T09:25:21.247Z,99.99
2018-11-11T09:26:21.233Z,99.99
2018-11-11T09:27:21.247Z,99.99
2018-11-11T09:28:21.221Z,99.99
2018-11-11T09:29:21.262Z,99.99
2018-11-11T09:30:21.279Z,99.99
2018-11-11T09:31:21.230Z,99.99
2018-11-11T09:32:21.195Z,99.99
2018-11-11T09:33:21.182Z,99.99
2018-11-11T09:34:21.184Z,99.99
2018-11-11T09:35:21.230Z,99.99
2018-11-11T09:36:21.160Z,99.99
2018-11-11T09:37:21.152Z,99.99
2018-11-11T09:38:21.149Z,99.99
2018-11-11T09:39:21.156Z,99.99
2018-11-11T09:40:21.136Z,99.99
2018-11-11T09:41:21.163Z,99.99
2018-11-11T09:42:21.129Z,99.99
2018-11-11T09:43:21.105Z,99.99
2018-11-11T09:44:21.098Z,99.99
2018-11-11T09:45:21.092Z,99.99
2018-11-11T09:46:21.100Z,99.99
2018-11-11T09:47:21.123Z,99.99
2018-11-11T09:48:21.081Z,99.99
2018-11-11T09:49:21.065Z,99.99
2018-11-11T09:50:21.056Z,99.99
2018-11-11T09:51:21.060Z,99.99
2018-11-11T09:52:21.046Z,99.99
2018-11-11T09:53:21.055Z,99.99
2018-11-11T09:54:21.052Z,99.99
2018-11-11T09:55:21.018Z,99.99
2018-11-11T09:56:21.009Z,99.99
2018-11-11T09:57:21.009Z,99.99
2018-11-11T09:58:21.003Z,99.99
2018-11-11T09:59:21.000Z,99.99
2018-11-11T10:00:22.870Z,99.99
2018-11-11T10:01:20.988Z,99.99
2018-11-11T10:02:20.994Z,99.99
2018-11-11T10:03:20.966Z,99.99
2018-11-11T10:04:20.958Z,99.99
2018-11-11T10:05:20.982Z,99.99
2018-11-11T10:06:20.971Z,99.99
2018-11-11T10:07:20.955Z,99.99
2018-11-11T10:08:20.952Z,99.99
2018-11-11T10:09:20.920Z,99.99
2018-11-11T10:10:21.106Z,99.99
2018-11-11T10:11:20.902Z,99.99
2018-11-11T10:12:21.020Z,99.99
2018-11-11T10:13:20.900Z,99.99
2018-11-11T10:14:20.907Z,99.99
2018-11-11T10:15:20.904Z,99.99
2018-11-11T10:16:20.910Z,99.99
2018-11-11T10:17:20.927Z,99.99
2018-11-11T10:18:20.858Z,99.99
2018-11-11T10:28:26.659Z,99.99
2018-11-11T10:29:24.030Z,99.99
2018-11-11T10:31:18.063Z,99.99
2018-11-11T10:32:17.777Z,99.99
2018-11-11T10:34:12.267Z,99.99
2018-11-11T10:35:11.324Z,99.99
2018-11-11T10:37:05.632Z,99.99
2018-11-11T10:38:04.904Z,99.99
2018-11-11T10:39:58.897Z,99.99
2018-11-11T10:40:58.488Z,99.99
2018-11-11T10:42:52.563Z,99.99
2018-11-11T10:43:52.269Z,99.99
2018-11-11T10:46:06.877Z,99.24
2018-11-11T10:47:48.035Z,99.19
2018-11-11T10:48:40.179Z,97.85
2018-11-11T10:51:01.217Z,99.96
2018-11-11T10:51:34.278Z,98.43
2018-11-11T10:53:27.601Z,99.99
2018-11-11T10:54:27.688Z,99.99
2018-11-11T10:56:24.186Z,99.99
2018-11-11T10:57:21.230Z,99.99
2018-11-11T10:59:15.394Z,98.75
2018-11-11T11:01:34.430Z,98.47
2018-11-11T11:02:29.437Z,99.43
2018-11-11T11:03:28.651Z,98.28
2018-11-11T11:04:30.568Z,97.23
2018-11-11T11:05:28.699Z,98.75
2018-11-11T11:06:28.609Z,97.61
2018-11-11T11:07:28.576Z,99.33
2018-11-11T11:08:51.299Z,99.33
2018-11-11T11:09:28.565Z,98.95
2018-11-11T11:10:28.553Z,98.75
2018-11-11T11:11:28.545Z,99.99
2018-11-11T11:12:28.769Z,99.71
2018-11-11T11:13:28.692Z,98.47
2018-11-11T11:14:28.528Z,99.14
2018-11-11T11:15:28.520Z,99.99
2018-11-11T11:16:28.517Z,99.99
2018-11-11T11:17:28.545Z,99.57
2018-11-11T11:18:28.533Z,99.99
2018-11-11T11:19:28.500Z,99.99
2018-11-11T11:20:28.499Z,99.99
2018-11-11T11:21:49.504Z,99.38
2018-11-11T11:22:28.481Z,99.28
2018-11-11T11:23:29.295Z,98.71
2018-11-11T11:24:28.469Z,98.71
2018-11-11T11:25:28.494Z,99.19
2018-11-11T11:26:28.466Z,99.99
2018-11-11T11:27:28.452Z,98.90
2018-11-11T11:28:28.504Z,99.76
2018-11-11T11:29:28.465Z,99.99
2018-11-11T11:30:28.426Z,99.76
2018-11-11T11:31:28.473Z,99.66
2018-11-11T11:32:28.421Z,98.33
2018-11-11T11:33:28.414Z,99.76
2018-11-11T11:34:28.430Z,98.90
2018-11-11T11:35:28.534Z,99.99
2018-11-11T11:36:28.393Z,99.28
2018-11-11T11:37:28.430Z,99.99
2018-11-11T11:38:28.457Z,99.99
2018-11-11T11:39:28.371Z,99.99
2018-11-11T11:40:28.373Z,99.99
2018-11-11T11:41:28.409Z,99.66
2018-11-11T11:42:28.370Z,99.66
2018-11-11T11:43:28.360Z,98.13
2018-11-11T11:44:28.366Z,99.48
2018-11-11T11:45:28.373Z,98.99
2018-11-11T11:46:28.319Z,99.99
2018-11-11T11:48:00.290Z,98.90
2018-11-11T11:48:28.300Z,98.90
2018-11-11T11:49:28.314Z,99.57
2018-11-11T11:50:28.365Z,99.99
2018-11-11T11:51:28.324Z,98.57
2018-11-11T11:52:28.374Z,98.95
2018-11-11T11:53:28.274Z,99.14
2018-11-11T11:54:28.272Z,97.61
2018-11-11T11:55:28.256Z,99.14
2018-11-11T11:56:28.272Z,97.80
2018-11-11T11:57:28.806Z,98.47
2018-11-11T11:58:28.271Z,98.95
2018-11-11T11:59:28.277Z,98.95
2018-11-11T12:00:28.296Z,99.04
2018-11-11T12:01:28.236Z,98.95
2018-11-11T12:02:28.220Z,99.99
2018-11-11T12:03:28.228Z,99.99
2018-11-11T12:04:28.215Z,98.18
2018-11-11T12:05:28.206Z,97.71
2018-11-11T12:06:28.189Z,97.42
2018-11-11T12:07:28.212Z,96.84
2018-11-11T12:08:28.270Z,96.84
2018-11-11T12:09:28.169Z,97.80
2018-11-11T12:10:32.303Z,98.09
2018-11-11T12:11:28.171Z,99.24
2018-11-11T12:12:28.802Z,97.61
2018-11-11T12:13:28.208Z,96.84
2018-11-11T12:14:28.164Z,96.08
2018-11-11T12:15:28.193Z,96.37
2018-11-11T12:16:28.240Z,96.66
2018-11-11T12:17:28.129Z,99.99
2018-11-11T12:18:38.830Z,99.04
2018-11-11T12:19:28.133Z,98.38
2018-11-11T12:20:28.132Z,99.14
2018-11-11T12:21:28.141Z,98.57
2018-11-11T12:22:28.098Z,97.61
2018-11-11T12:23:28.085Z,96.47
2018-11-11T12:24:28.072Z,96.84
2018-11-11T12:25:28.065Z,96.84
2018-11-11T12:26:28.068Z,97.99
2018-11-11T12:27:28.069Z,96.47
2018-11-11T12:28:28.046Z,96.27
2018-11-11T12:29:28.072Z,96.94
2018-11-11T12:30:28.125Z,96.56
2018-11-11T12:31:28.033Z,96.47
2018-11-11T12:32:28.014Z,96.66
2018-11-11T12:33:28.020Z,97.04
2018-11-11T12:34:28.043Z,97.23
2018-11-11T12:35:28.005Z,97.33
2018-11-11T12:36:27.988Z,96.56
2018-11-11T12:37:28.833Z,96.37
2018-11-11T12:38:27.987Z,96.18
2018-11-11T12:39:28.049Z,96.27
2018-11-11T12:40:27.973Z,97.80
2018-11-11T12:41:27.964Z,97.71
2018-11-11T12:42:28.007Z,97.42
2018-11-11T12:43:27.951Z,99.04
2018-11-11T12:44:27.984Z,97.61
2018-11-11T12:45:27.968Z,96.66
2018-11-11T12:46:27.932Z,96.66
2018-11-11T12:47:27.952Z,97.04
2018-11-11T12:48:27.946Z,97.13
2018-11-11T12:49:27.913Z,97.61
2018-11-11T12:50:28.029Z,98.95
2018-11-11T12:51:27.904Z,99.04
2018-11-11T12:52:27.934Z,97.61
2018-11-11T12:53:27.900Z,96.37
2018-11-11T12:54:27.883Z,96.84
2018-11-11T12:55:28.006Z,97.33
2018-11-11T12:56:27.864Z,97.13
2018-11-11T12:57:27.860Z,96.47
2018-11-11T12:58:27.909Z,96.75
2018-11-11T12:59:27.871Z,95.32
2018-11-11T13:00:27.873Z,94.41
2018-11-11T13:01:27.829Z,95.65
2018-11-11T13:02:27.845Z,93.31
2018-11-11T13:03:27.821Z,94.41
2018-11-11T13:04:27.812Z,93.93
2018-11-11T13:05:27.804Z,94.31
2018-11-11T13:06:27.797Z,95.56
2018-11-11T13:07:27.821Z,94.41
2018-11-11T13:08:27.794Z,94.60
2018-11-11T13:09:27.808Z,94.31
2018-11-11T13:10:27.772Z,94.50
2018-11-11T13:11:27.812Z,93.45
2018-11-11T13:12:27.954Z,93.26
2018-11-11T13:13:28.019Z,93.64
2018-11-11T13:14:27.744Z,93.07
2018-11-11T13:15:27.761Z,93.74
2018-11-11T13:16:27.757Z,93.16
2018-11-11T13:17:27.732Z,93.64
2018-11-11T13:18:27.721Z,92.69
2018-11-11T13:19:27.735Z,94.02